createdAt,value
2022-10-27T00:01:16.672Z,61.45885170440022
2022-10-27T00:04:17.148Z,61.774854423011874
2022-10-27T00:07:17.488Z,62.15991281039726
2022-10-27T00:11:15.661Z,62.408293862903435
2022-10-27T00:14:16.099Z,62.33824197249264
2022-10-27T00:17:16.028Z,62.82627368210623
2022-10-27T00:21:18.305Z,62.262105923514845
2022-10-27T00:24:16.901Z,62.31431196157302
2022-10-27T00:27:16.774Z,62.025334579188666
2022-10-27T00:31:18.499Z,61.45712416345986
2022-10-27T00:34:16.883Z,61.45966865541825
2022-10-27T00:37:16.134Z,61.52164707223028
2022-10-27T00:41:25.246Z,61.49420745246017
2022-10-27T00:44:35.722Z,61.398492807105576
2022-10-27T00:47:21.538Z,61.240205868663274
2022-10-27T00:51:17.651Z,60.88275403903984
2022-10-27T00:54:18.934Z,60.672907238876476
2022-10-27T00:57:17.850Z,60.70506690943787
2022-10-27T01:01:16.869Z,60.253480682647464
2022-10-27T01:04:19.773Z,60.3530388697234
2022-10-27T01:07:19.455Z,60.345024306213176
2022-10-27T01:11:16.032Z,60.04805020935244
2022-10-27T01:14:16.673Z,59.481411913688085
2022-10-27T01:17:31.709Z,59.50671502535792
2022-10-27T01:21:38.791Z,59.58107226562582
2022-10-27T01:25:03.359Z,60.224772820846084
2022-10-27T01:27:52.878Z,59.90037913103916
2022-10-27T01:31:21.895Z,59.34738982815314
2022-10-27T01:34:28.492Z,58.97944605014094
2022-10-27T01:37:23.047Z,59.414359753384566
2022-10-27T01:41:22.573Z,59.41403591234096
2022-10-27T01:44:24.019Z,59.351404661339934
2022-10-27T01:47:16.865Z,59.729689250917055
2022-10-27T01:51:16.128Z,59.22554730573112
2022-10-27T01:54:18.922Z,58.523394877316754
2022-10-27T01:57:26.503Z,58.65373307962566
2022-10-27T02:01:28.035Z,59.35977764332828
2022-10-27T02:04:25.270Z,61.19589546847201
2022-10-27T02:07:27.002Z,61.94228657563415
2022-10-27T02:11:15.730Z,61.88495482584585
2022-10-27T02:14:18.082Z,61.22261034415022
2022-10-27T02:17:20.893Z,60.49173957377836
2022-10-27T02:21:19.465Z,59.7561119508012
2022-10-27T02:24:17.179Z,59.79737633920527
2022-10-27T02:27:21.725Z,59.96525562262712
2022-10-27T02:31:19.522Z,60.2469108082541
2022-10-27T02:34:17.700Z,60.491583089059844
2022-10-27T02:37:20.240Z,60.31686557961597
2022-10-27T02:41:16.136Z,59.8486732895139
2022-10-27T02:44:16.231Z,60.05539466870244
2022-10-27T02:47:16.651Z,59.92526998368672
2022-10-27T02:51:15.787Z,59.568697388931426
2022-10-27T02:54:16.132Z,59.27901752620033
2022-10-27T02:57:18.170Z,59.32813270218006
2022-10-27T03:01:15.997Z,59.028634677154635
2022-10-27T03:04:16.122Z,58.33401046321725
2022-10-27T03:07:16.565Z,57.96523002677633
2022-10-27T03:11:15.899Z,58.30711216676067
2022-10-27T03:14:16.235Z,58.32269033507252
2022-10-27T03:17:17.183Z,58.238546424602035
2022-10-27T03:21:16.275Z,58.32843600994363
2022-10-27T03:24:16.281Z,58.367181352861344
2022-10-27T03:27:16.950Z,58.0394555555091
2022-10-27T03:31:16.438Z,57.77985340168768
2022-10-27T03:34:18.929Z,57.387117919522105
2022-10-27T03:37:16.900Z,57.16611601173395
2022-10-27T03:41:16.100Z,58.175414809952656
2022-10-27T03:44:16.575Z,58.968602319469944
2022-10-27T03:47:16.483Z,59.37911623803263
2022-10-27T03:51:16.805Z,59.64364006685438
2022-10-27T03:54:17.000Z,59.805132217133774
2022-10-27T03:57:16.811Z,59.9293203637083
2022-10-27T04:01:16.098Z,59.36293324302713
2022-10-27T04:04:16.502Z,59.2079903085216
2022-10-27T04:07:16.746Z,58.92818455456867
2022-10-27T04:11:16.543Z,58.55536748356325
2022-10-27T04:14:16.847Z,58.61577651144107
2022-10-27T04:17:17.273Z,58.74136258958381
2022-10-27T04:21:16.482Z,58.58727039624444
2022-10-27T04:24:16.246Z,58.761387360300624
2022-10-27T04:27:16.681Z,59.18379277973434
2022-10-27T04:31:16.836Z,59.629170280459576
2022-10-27T04:34:17.142Z,59.19209160475219
2022-10-27T04:37:16.982Z,59.125398340218815
2022-10-27T04:41:16.278Z,58.836175294184656
2022-10-27T04:44:16.243Z,59.014814447400546
2022-10-27T04:47:16.802Z,58.966869088155015
2022-10-27T04:51:19.264Z,58.646346373081194
2022-10-27T04:54:16.271Z,58.63593167380355
2022-10-27T04:57:16.041Z,58.675269779835176
2022-10-27T05:01:16.225Z,59.145179655312674
2022-10-27T05:04:16.253Z,59.22112112471946
2022-10-27T05:07:16.307Z,58.67449874065236
2022-10-27T05:11:16.570Z,58.322992327794495
2022-10-27T05:14:16.010Z,58.43668375950465
2022-10-27T05:17:19.496Z,58.509830689987666
2022-10-27T05:21:15.682Z,58.5719637226841
2022-10-27T05:24:16.178Z,58.93368353465581
2022-10-27T05:27:16.179Z,58.92325697491854
2022-10-27T05:31:15.852Z,59.437175749569825
2022-10-27T05:34:16.270Z,59.39656801237405
2022-10-27T05:37:16.773Z,59.20872787459043
2022-10-27T05:41:16.119Z,59.125361781356546
2022-10-27T05:44:16.417Z,59.57367242710969
2022-10-27T05:47:16.322Z,59.87214546679367
2022-10-27T05:51:19.258Z,59.86163716772
2022-10-27T05:54:17.022Z,59.86603067379903
2022-10-27T05:57:16.656Z,59.72888939142162
2022-10-27T06:01:24.198Z,59.21135166243272
2022-10-27T06:04:18.383Z,59.103780994617416
2022-10-27T06:07:18.347Z,58.809228942868195
2022-10-27T06:11:15.870Z,59.122832788261675
2022-10-27T06:14:16.807Z,59.061221755619044
2022-10-27T06:17:16.268Z,59.25890499032921
2022-10-27T06:21:17.399Z,59.38513768179307
2022-10-27T06:24:17.032Z,59.66798045500183
2022-10-27T06:27:16.786Z,59.895276049409254
2022-10-27T06:31:16.222Z,60.26863731089481
2022-10-27T06:34:16.356Z,60.24743474464573
2022-10-27T06:37:16.392Z,60.45434767165163
2022-10-27T06:41:17.829Z,60.79039375007277
2022-10-27T06:44:16.027Z,61.01258755337285
2022-10-27T06:47:15.994Z,61.29583701932142
2022-10-27T06:51:16.277Z,61.92431210509192
2022-10-27T06:54:16.684Z,62.57544473924633
2022-10-27T06:57:17.236Z,63.247531930379616
2022-10-27T07:01:15.937Z,62.88306774575388
2022-10-27T07:04:16.286Z,61.38886434075589
2022-10-27T07:07:16.057Z,60.503110115838616
2022-10-27T07:11:15.696Z,60.710951925906166
2022-10-27T07:14:16.686Z,60.827102534709915
2022-10-27T07:17:16.296Z,62.019143805252156
2022-10-27T07:21:16.283Z,63.41052807093311
2022-10-27T07:24:16.740Z,64.52257663211418
2022-10-27T07:27:16.459Z,65.16640362146846
2022-10-27T07:31:22.097Z,65.47925937566008
2022-10-27T07:34:17.868Z,66.11215926417267
2022-10-27T07:37:17.661Z,68.02852556702122
2022-10-27T07:41:15.831Z,69.47227274719542
2022-10-27T07:44:16.105Z,70.1854801326325
2022-10-27T07:47:15.952Z,70.64016620070798
2022-10-27T07:51:16.552Z,71.62957588513247
2022-10-27T07:54:16.728Z,71.26431209166331
2022-10-27T07:57:16.685Z,69.73147785809275
2022-10-27T08:01:16.087Z,66.52644337109402
2022-10-27T08:04:16.610Z,65.30064591944763
2022-10-27T08:07:20.331Z,65.69099963946846
2022-10-27T08:11:16.985Z,66.85628131656205
2022-10-27T08:14:16.604Z,66.4103137624344
2022-10-27T08:17:16.860Z,67.06693329033797
2022-10-27T08:21:16.058Z,67.25318070571343
2022-10-27T08:24:16.037Z,66.98692031943798
2022-10-27T08:27:16.586Z,66.08094014744215
2022-10-27T08:31:16.003Z,65.10105627449572
2022-10-27T08:37:16.521Z,64.30030034942648
2022-10-27T08:41:25.119Z,65.10078287254181
2022-10-27T08:44:23.385Z,66.39208336889597
2022-10-27T08:47:21.119Z,67.01400685681273
2022-10-27T08:51:19.456Z,68.19460852814493
2022-10-27T08:57:24.120Z,70.01407435563766
2022-10-27T09:01:31.007Z,70.01277048618917
2022-10-27T09:04:28.943Z,69.32325507322342
2022-10-27T09:07:27.072Z,66.0424247810538
2022-10-27T09:11:26.463Z,64.49774473277239
2022-10-27T09:14:44.118Z,64.50335778782897
2022-10-27T09:17:23.258Z,64.81556833278927
2022-10-27T09:21:19.519Z,65.47378581639506
2022-10-27T09:24:20.556Z,64.9912805657044
2022-10-27T09:27:16.789Z,65.34022564288011
2022-10-27T09:31:21.404Z,62.048002756229415
2022-10-27T09:34:21.155Z,60.415147038104514
2022-10-27T09:37:19.252Z,59.349425801829724
2022-10-27T09:41:18.903Z,60.731150642693876
2022-10-27T09:44:22.013Z,61.97931149797581
2022-10-27T09:47:21.875Z,61.71385983450751
2022-10-27T09:51:21.631Z,61.70296546305689
2022-10-27T09:54:29.844Z,62.062665424341816
2022-10-27T09:57:20.499Z,60.976656791797836
2022-10-27T10:01:16.779Z,59.10085454090943
2022-10-27T10:04:19.986Z,59.07746008433911
2022-10-27T10:07:31.720Z,59.181236640690315
2022-10-27T10:11:19.583Z,61.5870405516011
2022-10-27T10:14:21.973Z,61.39313886196003
2022-10-27T10:17:21.352Z,61.60930313013991
2022-10-27T10:21:15.948Z,58.83289738344719
2022-10-27T10:24:18.960Z,58.313617325962404
2022-10-27T10:27:25.963Z,55.69063691496198
2022-10-27T10:31:24.003Z,54.58519448644011
2022-10-27T10:34:31.295Z,55.09886779538288
2022-10-27T10:37:37.789Z,55.392580662781384
2022-10-27T10:41:18.143Z,52.69934908357304
2022-10-27T10:44:17.603Z,54.07042206734411
2022-10-27T10:47:23.768Z,54.02683642281752
2022-10-27T10:54:23.656Z,52.342614747699784
2022-10-27T10:57:32.965Z,52.450157295732645
2022-10-27T11:01:17.072Z,52.36835496990319
2022-10-27T11:04:21.295Z,52.7150737668147
2022-10-27T11:07:22.264Z,50.44141039636155
2022-10-27T11:11:20.773Z,49.12017617312762
2022-10-27T11:14:17.107Z,51.36862483835639
2022-10-27T11:17:19.665Z,49.70175653600744
2022-10-27T11:21:25.771Z,51.196282341741025
2022-10-27T11:24:22.392Z,48.794146668436824
2022-10-27T11:27:21.353Z,47.67086156825479
2022-10-27T11:31:22.939Z,48.82241110658699
2022-10-27T11:34:27.543Z,48.81895719716238
2022-10-27T11:37:22.435Z,49.07232065267696
2022-10-27T11:41:25.918Z,48.859714052238274
2022-10-27T11:44:26.101Z,46.85342901102789
2022-10-27T11:47:23.824Z,47.42663269275456
2022-10-27T11:51:23.157Z,46.33010061242202
2022-10-27T11:54:18.011Z,44.06886675017849
2022-10-27T11:57:39.615Z,46.906089041735214
2022-10-27T12:01:37.811Z,46.527304443034005
2022-10-27T12:04:32.867Z,44.11153323624951
2022-10-27T12:11:25.701Z,43.04099968875444
2022-10-27T12:14:26.329Z,42.86564890321892
2022-10-27T12:17:23.592Z,42.104134099299344
2022-10-27T12:21:22.029Z,43.19426623197883
2022-10-27T12:24:23.828Z,41.62354163201595
2022-10-27T12:27:21.363Z,43.01894961596642
2022-10-27T12:31:22.239Z,41.2482277859358
2022-10-27T12:34:20.342Z,41.3830744246578
2022-10-27T12:37:25.003Z,40.45601591448909
2022-10-27T12:41:26.668Z,40.55554570207275
2022-10-27T12:44:26.101Z,40.936936202496014
2022-10-27T12:47:32.519Z,41.711614900457654
2022-10-27T12:51:27.855Z,40.496544469199435
2022-10-27T12:54:31.588Z,42.18115695606254
2022-10-27T12:57:29.802Z,39.169144876755354
2022-10-27T13:01:29.165Z,38.95748839544129
2022-10-27T13:04:51.766Z,37.846692607699794
2022-10-27T13:11:47.691Z,38.05819655702302
2022-10-27T13:14:41.508Z,36.911571768060305
2022-10-27T13:17:26.103Z,37.44685334535051
2022-10-27T13:21:21.140Z,37.61757552462533
2022-10-27T13:24:26.697Z,37.72275748580822
2022-10-27T13:27:21.298Z,37.44048269767015
2022-10-27T13:31:22.010Z,36.60051294702686
2022-10-27T13:34:19.097Z,37.37645680576403
2022-10-27T13:37:43.860Z,38.27523385525863
2022-10-27T13:42:13.167Z,37.36997433836532
2022-10-27T13:44:27.191Z,37.893002488251724
2022-10-27T13:47:18.068Z,36.74082087377568
2022-10-27T13:52:08.825Z,37.15887398186286
2022-10-27T13:55:32.283Z,37.329671977530914
2022-10-27T14:01:27.078Z,36.14419147613089
2022-10-27T14:04:29.226Z,35.69151831546767
2022-10-27T14:07:16.950Z,35.30379875088928
2022-10-27T14:11:18.644Z,36.52645099749006
2022-10-27T14:14:24.226Z,38.11328725109312
2022-10-27T14:17:18.077Z,38.894971916499046
2022-10-27T14:21:20.366Z,38.09133014670293
2022-10-27T14:24:20.342Z,38.46133041521552
2022-10-27T14:27:19.037Z,37.76890037394823
2022-10-27T14:31:18.980Z,38.73184891395689
2022-10-27T14:34:21.594Z,39.46518222516974
2022-10-27T14:37:19.476Z,40.163542633776316
2022-10-27T14:41:20.211Z,40.69738522102181
2022-10-27T14:44:23.710Z,40.01756989132813
2022-10-27T14:47:19.250Z,40.60976404925796
2022-10-27T14:51:18.116Z,39.95947818165167
2022-10-27T14:54:18.852Z,40.01242373985699
2022-10-27T14:57:27.521Z,41.394990520790714
2022-10-27T15:01:25.980Z,42.1853814535123
2022-10-27T15:04:20.833Z,42.062322529826325
2022-10-27T15:07:18.209Z,42.3195352715711
2022-10-27T15:11:18.610Z,41.336483608501204
2022-10-27T15:14:17.122Z,40.745563717565304
2022-10-27T15:17:21.031Z,40.61122118332297
2022-10-27T15:21:19.133Z,40.646510271038714
2022-10-27T15:24:21.135Z,40.71108783401593
2022-10-27T15:27:16.955Z,40.86314836105646
2022-10-27T15:31:16.694Z,40.483471497124654
2022-10-27T15:37:31.794Z,40.83430218201699
2022-10-27T15:41:21.449Z,41.312916276220065
2022-10-27T15:44:26.852Z,41.91359548852608
2022-10-27T15:47:47.804Z,42.33880395261385
2022-10-27T15:51:18.139Z,42.676263589061534
2022-10-27T15:54:22.194Z,42.69908649491505
2022-10-27T15:57:30.992Z,43.11166064324157
2022-10-27T16:01:32.037Z,43.63430465763275
2022-10-27T16:04:32.601Z,44.07531352357562
2022-10-27T16:11:17.615Z,45.07195101413331
2022-10-27T16:14:17.263Z,45.320772680669315
2022-10-27T16:17:20.042Z,46.26325332220403
2022-10-27T16:21:23.999Z,46.91601049084622
2022-10-27T16:24:19.791Z,47.14009210417194
2022-10-27T16:27:21.765Z,47.808850008154586
2022-10-27T16:31:18.537Z,48.08951309834411
2022-10-27T16:34:19.678Z,48.37141511538807
2022-10-27T16:37:20.697Z,48.24874254359904
2022-10-27T16:41:23.428Z,48.73251309841063
2022-10-27T16:44:16.902Z,49.162007446411444
2022-10-27T16:47:18.863Z,49.49493359215145
2022-10-27T16:51:17.307Z,49.49276010948085
2022-10-27T16:54:17.184Z,50.28580278032983
2022-10-27T16:57:16.412Z,50.16792607372072
2022-10-27T17:01:18.415Z,49.88946620674757
2022-10-27T17:04:17.389Z,50.3582677931869
2022-10-27T17:07:17.136Z,50.339330017420714
2022-10-27T17:11:17.098Z,50.08213515847977
2022-10-27T17:14:16.480Z,50.061950910121006
2022-10-27T17:17:16.246Z,50.27850573335527
2022-10-27T17:21:16.235Z,50.446863281622086
2022-10-27T17:24:16.816Z,50.86926544696358
2022-10-27T17:27:16.584Z,51.68277689969054
2022-10-27T17:31:20.967Z,51.35563846877979
2022-10-27T17:34:17.998Z,51.828159915986234
2022-10-27T17:37:16.434Z,52.22285366946852
2022-10-27T17:41:16.855Z,52.61038262349916
2022-10-27T17:44:17.562Z,53.60611105013242
2022-10-27T17:47:16.967Z,53.668602336844124
2022-10-27T17:51:18.784Z,53.31334776943632
2022-10-27T17:54:17.875Z,53.55003489878286
2022-10-27T17:57:17.118Z,53.15266153305207
2022-10-27T18:01:18.469Z,52.83691275851168
2022-10-27T18:04:16.555Z,53.19546513304644
2022-10-27T18:07:17.303Z,53.986187707531094
2022-10-27T18:11:18.267Z,54.647997574279835
2022-10-27T18:14:18.085Z,55.609808916731396
2022-10-27T18:17:16.552Z,55.617732135482164
2022-10-27T18:21:17.599Z,55.64275144963847
2022-10-27T18:24:17.915Z,56.2265277662078
2022-10-27T18:27:16.767Z,56.46614407292521
2022-10-27T18:31:19.242Z,57.07334931088318
2022-10-27T18:34:17.260Z,57.225835156836474
2022-10-27T18:37:17.057Z,58.04004662692773
2022-10-27T18:41:17.526Z,58.03337688276412
2022-10-27T18:44:18.128Z,58.18921310179377
2022-10-27T18:47:17.455Z,58.75762621983461
2022-10-27T18:51:17.072Z,58.37599262092754
2022-10-27T18:54:16.531Z,58.86156026314913
2022-10-27T18:57:17.437Z,59.64848754319475
2022-10-27T19:01:16.545Z,59.49028392227894
2022-10-27T19:04:16.476Z,59.70472376058573
2022-10-27T19:07:16.445Z,60.08434915919871
2022-10-27T19:11:18.192Z,60.308226921348435
2022-10-27T19:14:16.913Z,60.91739073279994
2022-10-27T19:17:16.818Z,60.990052094412356
2022-10-27T19:21:18.459Z,60.750312681166236
2022-10-27T19:24:16.690Z,61.03205598889569
2022-10-27T19:27:16.470Z,60.905540101106446
2022-10-27T19:31:21.703Z,60.951211263354715
2022-10-27T19:34:19.512Z,61.32867310839818
2022-10-27T19:37:20.909Z,61.387446549971344
2022-10-27T19:41:18.746Z,61.77211478177138
2022-10-27T19:44:16.645Z,62.28464537721468
2022-10-27T19:47:17.750Z,62.855133326367586
2022-10-27T19:51:20.055Z,62.511287583491224
2022-10-27T19:54:18.782Z,62.87393243004518
2022-10-27T19:57:17.267Z,62.780960280223795
2022-10-27T20:01:19.411Z,62.00480342291525
2022-10-27T20:04:18.355Z,62.521505870436066
2022-10-27T20:07:17.084Z,62.1310540475024
2022-10-27T20:11:19.031Z,62.33587948901859
2022-10-27T20:14:17.074Z,62.541845439541156
2022-10-27T20:17:17.972Z,62.57910942603598
2022-10-27T20:21:16.668Z,62.67617037230369
2022-10-27T20:24:17.684Z,62.976552321415824
2022-10-27T20:27:17.523Z,62.86151817832054
2022-10-27T20:31:16.083Z,63.03466272874058
2022-10-27T20:34:16.657Z,63.43340156853503
2022-10-27T20:37:16.022Z,63.54003090833449
2022-10-27T20:41:19.467Z,63.13114399463696
2022-10-27T20:44:16.766Z,63.35012782151237
2022-10-27T20:47:16.726Z,63.50586254202111
2022-10-27T20:51:16.514Z,63.71429240218451
2022-10-27T20:54:16.252Z,64.01307357634948
2022-10-27T20:57:16.177Z,64.24329914433845
2022-10-27T21:01:26.511Z,63.841648274693995
2022-10-27T21:04:17.674Z,64.49581813270788
2022-10-27T21:07:16.635Z,64.26833468712312
2022-10-27T21:11:16.196Z,64.28638088961362
2022-10-27T21:14:16.880Z,64.82242954353048
2022-10-27T21:17:16.298Z,64.96061992203909
2022-10-27T21:21:17.103Z,64.87799034845465
2022-10-27T21:24:17.652Z,65.37601641943567
2022-10-27T21:27:16.844Z,64.8382345937775
2022-10-27T21:31:16.541Z,64.11296868439133
2022-10-27T21:34:16.697Z,64.4657915218331
2022-10-27T21:37:16.800Z,64.44744714688137
2022-10-27T21:41:18.352Z,64.0902759630682
2022-10-27T21:44:17.088Z,63.90667263768939
2022-10-27T21:47:16.477Z,63.611109705552465
2022-10-27T21:51:16.291Z,63.427960652802746
2022-10-27T21:54:16.567Z,64.27593734400477
2022-10-27T21:57:16.699Z,63.954784799825894
2022-10-27T22:01:18.705Z,64.38710223592952
2022-10-27T22:04:16.193Z,64.68800572656345
2022-10-27T22:07:16.129Z,64.97195952490746
2022-10-27T22:11:17.528Z,64.75996233398659
2022-10-27T22:14:16.496Z,65.06879335258733
2022-10-27T22:17:16.246Z,64.90235736357128
2022-10-27T22:21:48.160Z,65.01227597656064
2022-10-27T22:24:17.149Z,65.25024648588317
2022-10-27T22:27:18.349Z,64.86772486952377
2022-10-27T22:31:18.361Z,65.01614883101604
2022-10-27T22:34:17.778Z,65.64930714101337
2022-10-27T22:37:16.173Z,65.36839085129138
2022-10-27T22:41:16.129Z,64.72101610181035
2022-10-27T22:44:16.219Z,64.97753410971887
2022-10-27T22:51:21.458Z,64.13756176802758
2022-10-27T22:54:16.764Z,63.91916924479596
2022-10-27T22:57:17.052Z,63.46514409594801
2022-10-27T23:01:21.599Z,63.96624107976636
2022-10-27T23:04:18.628Z,64.2308384115663
2022-10-27T23:07:24.166Z,63.96211119072511
2022-10-27T23:11:16.250Z,64.51686346698773
2022-10-27T23:14:17.020Z,65.00833500103693
2022-10-27T23:17:17.050Z,63.94206087429055
2022-10-27T23:21:16.733Z,62.80624565152383
2022-10-27T23:24:16.776Z,63.9622880514278
2022-10-27T23:27:16.721Z,64.15120169138139
2022-10-27T23:31:16.620Z,63.68700599741767
2022-10-27T23:34:16.594Z,63.90424732284181
2022-10-27T23:37:16.523Z,64.39772873841603
2022-10-27T23:41:17.185Z,64.2768367810075
2022-10-27T23:44:16.731Z,64.7263826522787
2022-10-27T23:47:17.181Z,65.42645480658403
2022-10-27T23:51:16.689Z,65.73163980802241
2022-10-27T23:54:16.525Z,65.70286142424209
2022-10-27T23:57:16.539Z,64.71279096734207
